createdAt,value
2023-09-23T00:31:04.012Z,0.98
2023-09-23T00:33:27.395Z,1.00
2023-09-23T00:35:51.789Z,0.82
2023-09-23T00:38:19.452Z,1.08
2023-09-23T00:40:46.980Z,0.90
2023-09-23T00:43:12.762Z,1.00
2023-09-23T00:45:36.770Z,0.80
2023-09-23T00:48:04.321Z,1.00
2023-09-23T00:50:33.602Z,1.00
2023-09-23T00:52:51.568Z,0.85
2023-09-23T00:55:12.414Z,0.80
2023-09-23T00:57:34.793Z,0.88
2023-09-23T00:59:56.462Z,1.00
2023-09-23T01:01:59.947Z,1.02
2023-09-23T01:04:07.330Z,1.33
2023-09-23T01:06:15.664Z,1.10
2023-09-23T01:08:21.030Z,1.83
2023-09-23T01:10:25.677Z,1.45
2023-09-23T01:12:32.088Z,1.00
2023-09-23T01:14:36.800Z,1.13
2023-09-23T01:16:43.038Z,1.00
2023-09-23T01:18:50.551Z,1.20
2023-09-23T01:20:57.745Z,0.95
2023-09-23T01:23:06.758Z,0.80
2023-09-23T01:25:11.285Z,0.98
2023-09-23T01:27:15.786Z,1.10
2023-09-23T01:29:23.930Z,0.80
2023-09-23T01:31:30.797Z,1.00
2023-09-23T01:33:36.157Z,0.88
2023-09-23T01:35:41.040Z,0.80
2023-09-23T01:37:47.090Z,0.73
2023-09-23T01:39:53.493Z,1.20
2023-09-23T01:41:58.329Z,0.68
2023-09-23T01:44:03.022Z,0.80
2023-09-23T01:46:08.568Z,1.00
2023-09-23T01:48:14.824Z,0.93
2023-09-23T01:50:20.314Z,0.80
2023-09-23T01:52:25.217Z,1.25
2023-09-23T01:54:31.435Z,0.80
2023-09-23T01:56:37.938Z,0.98
2023-09-23T01:58:41.665Z,0.85
2023-09-23T02:00:46.820Z,0.90
2023-09-23T02:02:51.498Z,1.00
2023-09-23T02:04:56.088Z,1.00
2023-09-23T02:07:00.842Z,1.00
2023-09-23T02:09:05.576Z,1.00
2023-09-23T02:11:09.477Z,0.93
2023-09-23T02:13:15.615Z,0.80
2023-09-23T02:15:20.460Z,1.00
2023-09-23T02:17:24.799Z,0.82
2023-09-23T02:19:29.499Z,0.90
2023-09-23T02:21:34.244Z,1.10
2023-09-23T02:23:38.760Z,0.80
2023-09-23T02:25:43.076Z,0.85
2023-09-23T02:27:48.249Z,1.00
2023-09-23T02:29:54.658Z,0.80
2023-09-23T02:31:58.849Z,0.80
2023-09-23T02:34:03.972Z,0.90
2023-09-23T02:36:10.058Z,0.95
2023-09-23T02:38:17.102Z,0.95
2023-09-23T02:40:23.129Z,1.08
2023-09-23T02:42:30.021Z,1.02
2023-09-23T02:44:34.422Z,0.90
2023-09-23T02:46:48.417Z,0.90
2023-09-23T02:48:52.344Z,1.00
2023-09-23T02:51:07.737Z,0.90
2023-09-23T02:53:19.793Z,0.88
2023-09-23T02:55:34.970Z,1.10
2023-09-23T02:57:49.749Z,0.70
2023-09-23T03:00:00.481Z,1.27
2023-09-23T03:02:09.629Z,0.90
2023-09-23T03:04:21.274Z,1.20
2023-09-23T03:06:25.402Z,1.00
2023-09-23T03:08:31.296Z,1.00
2023-09-23T03:31:08.635Z,1.40
2023-09-23T03:33:13.385Z,1.07
2023-09-23T03:35:18.915Z,1.48
2023-09-23T03:37:24.051Z,1.20
2023-09-23T03:39:28.257Z,1.50
2023-09-23T03:41:31.997Z,1.30
2023-09-23T03:43:34.801Z,1.45
2023-09-23T03:45:39.806Z,1.48
2023-09-23T03:47:43.487Z,1.60
2023-09-23T03:49:48.743Z,1.33
2023-09-23T03:59:50.488Z,1.33
2023-09-23T04:01:55.085Z,1.30
2023-09-23T04:03:58.929Z,1.30
2023-09-23T04:06:06.892Z,1.27
2023-09-23T04:08:10.912Z,1.40
2023-09-23T04:10:14.693Z,1.20
2023-09-23T04:12:18.719Z,1.20
2023-09-23T04:14:25.329Z,1.20
2023-09-23T04:16:29.035Z,1.30
2023-09-23T04:18:33.445Z,1.30
2023-09-23T04:20:37.254Z,1.00
2023-09-23T04:22:42.443Z,1.20
2023-09-23T04:24:47.652Z,1.50
2023-09-23T04:26:52.214Z,1.40
2023-09-23T04:28:55.960Z,1.50
2023-09-23T04:31:00.281Z,1.38
2023-09-23T04:33:04.237Z,1.23
2023-09-23T04:35:09.008Z,1.20
2023-09-23T04:45:55.998Z,1.60
2023-09-23T04:48:02.446Z,1.50
2023-09-23T04:50:06.601Z,1.50
2023-09-23T04:52:10.796Z,1.60
2023-09-23T04:54:16.726Z,1.60
2023-09-23T04:56:20.465Z,1.55
2023-09-23T04:58:24.172Z,1.50
2023-09-23T05:00:28.236Z,1.45
2023-09-23T05:02:33.294Z,1.42
2023-09-23T05:04:37.071Z,1.20
2023-09-23T05:06:40.925Z,1.60
2023-09-23T05:08:45.200Z,1.92
2023-09-23T05:10:49.459Z,1.63
2023-09-23T05:12:55.446Z,1.50
2023-09-23T05:14:59.559Z,1.40
2023-09-23T05:17:05.963Z,1.85
2023-09-23T05:19:12.821Z,1.80
2023-09-23T05:25:28.469Z,1.50
2023-09-23T05:27:34.481Z,1.48
2023-09-23T05:29:38.262Z,1.38
2023-09-23T05:31:49.914Z,1.40
2023-09-23T05:33:53.608Z,1.52
2023-09-23T05:35:59.151Z,1.60
2023-09-23T05:38:02.929Z,1.60
2023-09-23T05:40:10.193Z,1.50
2023-09-23T05:42:14.612Z,1.73
2023-09-23T05:44:20.385Z,1.98
2023-09-23T05:46:24.534Z,1.95
2023-09-23T05:48:28.276Z,1.97
2023-09-23T05:50:32.343Z,1.90
2023-09-23T05:52:38.105Z,2.08
2023-09-23T05:54:41.732Z,1.93
2023-09-23T05:56:45.405Z,1.75
2023-09-23T06:06:57.909Z,1.70
2023-09-23T06:09:02.963Z,1.73
2023-09-23T06:11:06.838Z,1.70
2023-09-23T06:13:10.793Z,1.63
2023-09-23T06:15:16.423Z,2.20
2023-09-23T06:17:20.207Z,1.90
2023-09-23T06:19:24.197Z,1.85
2023-09-23T06:21:28.069Z,1.90
2023-09-23T06:23:31.924Z,2.08
2023-09-23T06:25:37.672Z,2.72
2023-09-23T06:27:41.412Z,2.20
2023-09-23T06:29:45.173Z,2.35
2023-09-23T06:31:49.252Z,2.17
2023-09-23T06:33:53.042Z,2.22
2023-09-23T06:36:04.681Z,2.13
2023-09-23T06:38:08.600Z,2.03
2023-09-23T06:40:12.739Z,1.98
2023-09-23T06:42:18.049Z,1.98
2023-09-23T06:44:22.182Z,2.20
2023-09-23T06:46:26.048Z,1.80
2023-09-23T06:48:30.167Z,2.05
2023-09-23T06:50:34.288Z,2.00
2023-09-23T06:52:38.511Z,2.00
2023-09-23T06:54:41.330Z,2.00
2023-09-23T06:56:46.392Z,2.55
2023-09-23T06:58:51.709Z,1.80
2023-09-23T07:00:56.963Z,2.00
2023-09-23T07:03:01.271Z,1.90
2023-09-23T07:05:05.778Z,1.85
2023-09-23T07:07:09.983Z,2.10
2023-09-23T07:09:14.392Z,1.83
2023-09-23T07:11:18.392Z,2.08
2023-09-23T07:13:22.365Z,2.20
2023-09-23T07:15:28.048Z,2.40
2023-09-23T07:17:32.251Z,2.40
2023-09-23T07:19:36.380Z,2.42
2023-09-23T07:21:40.354Z,2.42
2023-09-23T07:23:44.235Z,2.67
2023-09-23T07:25:48.391Z,2.55
2023-09-23T07:27:52.537Z,2.83
2023-09-23T07:29:56.926Z,2.35
2023-09-23T07:32:02.607Z,2.60
2023-09-23T07:34:06.701Z,2.45
2023-09-23T07:36:13.287Z,2.60
2023-09-23T07:38:17.300Z,3.03
2023-09-23T07:40:23.455Z,3.40
2023-09-23T07:42:27.307Z,3.05
2023-09-23T07:44:31.638Z,3.25
2023-09-23T07:46:36.037Z,3.28
2023-09-23T07:48:42.684Z,3.10
2023-09-23T07:50:46.528Z,3.20
2023-09-23T07:52:50.841Z,3.60
2023-09-23T07:54:54.959Z,3.30
2023-09-23T07:56:59.206Z,3.05
2023-09-23T07:59:03.390Z,3.15
2023-09-23T08:01:06.397Z,3.05
2023-09-23T08:03:10.661Z,3.22
2023-09-23T08:05:16.501Z,3.13
2023-09-23T08:07:20.449Z,2.70
2023-09-23T08:09:24.193Z,2.63
2023-09-23T08:11:28.532Z,2.20
2023-09-23T08:13:32.370Z,2.42
2023-09-23T08:15:36.462Z,2.50
2023-09-23T08:17:41.642Z,2.30
2023-09-23T08:19:47.010Z,2.13
2023-09-23T08:21:52.404Z,2.00
2023-09-23T08:23:56.569Z,1.67
2023-09-23T08:26:00.448Z,1.90
2023-09-23T08:28:04.513Z,1.60
2023-09-23T08:30:09.590Z,1.58
2023-09-23T08:32:13.665Z,1.85
2023-09-23T08:34:19.677Z,1.70
2023-09-23T08:36:24.244Z,1.45
2023-09-23T08:38:29.723Z,1.75
2023-09-23T08:40:35.904Z,1.77
2023-09-23T08:42:38.940Z,1.85
2023-09-23T08:44:43.201Z,1.52
2023-09-23T08:46:48.993Z,1.73
2023-09-23T08:48:53.056Z,1.63
2023-09-23T08:50:57.383Z,1.45
2023-09-23T08:53:01.307Z,1.73
2023-09-23T08:55:09.018Z,1.67
2023-09-23T08:57:13.763Z,1.27
2023-09-23T08:59:28.333Z,1.60
2023-09-23T09:01:32.377Z,1.38
2023-09-23T09:03:36.038Z,1.50
2023-09-23T09:05:41.735Z,1.85
2023-09-23T09:07:45.837Z,1.73
2023-09-23T09:09:49.638Z,1.50
2023-09-23T09:11:55.375Z,1.58
2023-09-23T09:13:59.551Z,1.52
2023-09-23T09:16:06.929Z,1.60
2023-09-23T09:18:10.973Z,1.52
2023-09-23T09:20:14.599Z,1.75
2023-09-23T09:22:18.930Z,1.70
2023-09-23T09:24:24.018Z,1.70
2023-09-23T09:26:28.228Z,1.63
2023-09-23T09:28:32.236Z,1.75
2023-09-23T09:30:36.184Z,1.13
2023-09-23T09:32:41.310Z,1.42
2023-09-23T09:34:46.985Z,1.45
2023-09-23T09:36:51.056Z,1.75
2023-09-23T09:38:55.035Z,1.63
2023-09-23T09:41:02.679Z,1.60
2023-09-23T09:43:06.924Z,1.40
2023-09-23T09:45:12.085Z,1.50
2023-09-23T09:47:17.558Z,1.20
2023-09-23T09:49:21.831Z,1.60
2023-09-23T09:51:24.449Z,1.42
2023-09-23T09:53:30.715Z,1.90
2023-09-23T09:55:35.092Z,1.60
2023-09-23T09:57:39.262Z,1.38
2023-09-23T09:59:45.155Z,1.02
2023-09-23T10:01:54.671Z,1.40
2023-09-23T10:04:00.818Z,1.40
2023-09-23T10:06:04.124Z,1.55
2023-09-23T10:08:16.235Z,1.35
2023-09-23T10:10:20.552Z,1.40
2023-09-23T10:12:27.804Z,1.10
2023-09-23T10:14:31.778Z,1.40
2023-09-23T10:18:58.668Z,1.30
2023-09-23T10:21:05.828Z,1.40
2023-09-23T10:23:12.675Z,1.40
2023-09-23T10:25:17.538Z,1.38
2023-09-23T10:27:27.288Z,1.30
2023-09-23T10:29:31.285Z,1.30
2023-09-23T10:31:35.658Z,1.48
2023-09-23T10:33:39.090Z,1.30
2023-09-23T10:35:45.000Z,1.40
2023-09-23T10:37:48.914Z,1.30
2023-09-23T10:39:51.783Z,1.13
2023-09-23T10:41:56.056Z,1.33
2023-09-23T10:43:58.772Z,1.30
2023-09-23T10:46:04.284Z,1.42
2023-09-23T10:48:09.995Z,1.30
2023-09-23T10:50:16.613Z,1.67
2023-09-23T10:52:24.659Z,1.10
2023-09-23T10:54:30.890Z,1.35
2023-09-23T10:56:35.270Z,1.33
2023-09-23T10:58:40.240Z,1.50
2023-09-23T11:00:45.702Z,1.70
2023-09-23T11:02:56.882Z,1.70
2023-09-23T11:05:01.093Z,1.58
2023-09-23T11:07:06.010Z,1.58
2023-09-23T11:09:11.910Z,1.52
2023-09-23T11:11:17.215Z,1.33
2023-09-23T11:13:21.664Z,1.52
2023-09-23T11:15:25.910Z,1.60
2023-09-23T11:17:32.441Z,1.60
2023-09-23T11:19:36.873Z,1.67
2023-09-23T11:21:47.593Z,1.25
2023-09-23T11:23:59.514Z,1.20
2023-09-23T11:26:06.726Z,1.60
2023-09-23T11:28:17.703Z,1.30
2023-09-23T11:30:22.873Z,1.40
2023-09-23T11:32:27.867Z,2.13
2023-09-23T11:34:33.148Z,1.30
2023-09-23T11:36:37.756Z,1.55
2023-09-23T11:38:44.084Z,1.35
2023-09-23T11:40:48.594Z,1.67
2023-09-23T11:42:55.302Z,1.30
2023-09-23T11:44:59.723Z,1.50
2023-09-23T11:47:02.788Z,1.30
2023-09-23T11:49:07.049Z,1.38
2023-09-23T11:51:12.766Z,1.30
2023-09-23T11:53:17.121Z,1.30
2023-09-23T11:55:24.092Z,1.50
2023-09-23T11:57:27.828Z,1.60
2023-09-23T11:59:33.850Z,1.83
2023-09-23T12:01:37.154Z,1.52
2023-09-23T12:03:41.897Z,1.63
2023-09-23T12:05:50.625Z,1.35
2023-09-23T12:07:56.629Z,1.60
2023-09-23T12:10:00.766Z,1.40
2023-09-23T12:12:04.668Z,1.58
2023-09-23T12:14:11.406Z,1.40
2023-09-23T12:16:17.851Z,1.45
2023-09-23T12:18:21.775Z,1.58
2023-09-23T12:20:26.558Z,1.30
2023-09-23T12:22:30.896Z,1.80
2023-09-23T12:24:35.057Z,1.35
2023-09-23T12:26:39.299Z,1.77
2023-09-23T12:28:43.445Z,1.40
2023-09-23T12:30:47.746Z,1.50
2023-09-23T12:32:54.226Z,1.67
2023-09-23T12:34:58.318Z,1.45
2023-09-23T12:37:02.930Z,1.50
2023-09-23T12:39:08.779Z,1.90
2023-09-23T12:41:13.165Z,1.40
2023-09-23T12:43:17.183Z,1.45
2023-09-23T12:45:21.511Z,1.60
2023-09-23T12:47:25.435Z,1.70
2023-09-23T12:49:32.109Z,1.27
2023-09-23T12:51:35.712Z,1.40
2023-09-23T12:53:39.877Z,1.70
2023-09-23T12:55:43.115Z,1.73
2023-09-23T12:57:49.860Z,1.88
2023-09-23T12:59:54.256Z,1.38
2023-09-23T13:01:58.081Z,1.40
2023-09-23T13:04:00.865Z,1.58
2023-09-23T13:06:06.995Z,1.52
2023-09-23T13:08:12.658Z,1.48
2023-09-23T13:10:16.612Z,1.50
2023-09-23T13:12:20.406Z,1.70
2023-09-23T13:14:24.701Z,1.25
2023-09-23T13:16:29.852Z,1.55
2023-09-23T13:18:33.702Z,1.35
2023-09-23T13:20:37.895Z,1.60
2023-09-23T13:22:43.763Z,1.70
2023-09-23T13:24:48.409Z,1.58
2023-09-23T13:26:52.592Z,1.80
2023-09-23T13:28:56.679Z,1.65
2023-09-23T13:31:03.532Z,1.33
2023-09-23T13:33:10.485Z,1.73
2023-09-23T13:35:15.008Z,1.52
2023-09-23T13:37:19.155Z,1.50
2023-09-23T13:39:25.321Z,1.50
2023-09-23T13:41:29.447Z,1.58
2023-09-23T13:43:33.373Z,1.42
2023-09-23T13:45:39.557Z,1.70
2023-09-23T13:47:44.866Z,1.30
2023-09-23T13:49:49.024Z,1.50
2023-09-23T13:51:53.689Z,1.70
2023-09-23T13:53:56.898Z,1.75
2023-09-23T13:56:03.207Z,1.60
2023-09-23T13:58:08.504Z,1.80
2023-09-23T14:00:13.309Z,1.67
2023-09-23T14:02:16.442Z,1.65
2023-09-23T14:04:20.947Z,1.50
2023-09-23T14:06:25.586Z,1.73
2023-09-23T14:08:29.818Z,1.70
2023-09-23T14:10:34.134Z,1.90
2023-09-23T14:12:39.966Z,1.67
2023-09-23T14:14:44.079Z,2.00
2023-09-23T14:16:50.326Z,1.85
2023-09-23T14:18:54.312Z,1.90
2023-09-23T14:20:59.349Z,1.65
2023-09-23T14:23:03.632Z,2.00
2023-09-23T14:25:08.925Z,1.60
2023-09-23T14:27:13.077Z,1.88
2023-09-23T14:29:18.909Z,1.98
2023-09-23T14:31:23.447Z,1.63
2023-09-23T14:33:27.885Z,1.48
2023-09-23T14:35:32.536Z,1.60
2023-09-23T14:37:36.712Z,1.85
2023-09-23T14:39:40.734Z,2.03
2023-09-23T14:41:46.221Z,1.42
2023-09-23T14:43:50.323Z,1.80
2023-09-23T14:45:56.565Z,1.75
2023-09-23T14:48:01.161Z,1.80
2023-09-23T14:50:06.323Z,1.75
2023-09-23T14:52:11.041Z,1.85
2023-09-23T14:54:15.070Z,1.90
2023-09-23T14:56:20.537Z,1.60
2023-09-23T14:58:24.739Z,1.50
2023-09-23T15:00:29.127Z,1.90
2023-09-23T15:02:36.486Z,1.83
2023-09-23T15:04:41.476Z,2.20
2023-09-23T15:06:46.015Z,1.73
2023-09-23T15:08:59.396Z,1.65
2023-09-23T15:11:04.743Z,2.15
2023-09-23T15:13:08.926Z,1.85
2023-09-23T15:15:15.908Z,1.90
2023-09-23T15:17:19.988Z,1.70
2023-09-23T15:19:25.514Z,1.77
2023-09-23T15:21:29.618Z,2.05
2023-09-23T15:23:33.743Z,1.90
2023-09-23T15:25:39.432Z,2.05
2023-09-23T15:27:47.857Z,1.77
2023-09-23T15:29:53.915Z,2.05
2023-09-23T15:32:00.119Z,2.10
2023-09-23T15:34:06.175Z,1.90
2023-09-23T15:36:13.890Z,2.10
2023-09-23T15:38:18.202Z,1.70
2023-09-23T15:40:22.366Z,1.77
2023-09-23T15:42:27.526Z,1.80
2023-09-23T15:44:33.000Z,2.05
2023-09-23T15:46:37.740Z,1.80
2023-09-23T15:48:42.930Z,2.03
2023-09-23T15:50:47.589Z,1.77
2023-09-23T15:52:53.686Z,1.90
2023-09-23T15:54:59.902Z,1.55
2023-09-23T15:57:07.519Z,1.77
2023-09-23T15:59:12.104Z,2.00
2023-09-23T16:01:16.586Z,2.28
2023-09-23T16:03:20.010Z,1.77
2023-09-23T16:05:24.561Z,1.90
2023-09-23T16:07:28.993Z,1.70
2023-09-23T16:09:34.881Z,1.95
2023-09-23T16:11:38.817Z,1.70
2023-09-23T16:13:42.925Z,1.77
2023-09-23T16:15:47.346Z,2.13
2023-09-23T16:17:51.381Z,2.05
2023-09-23T16:19:55.535Z,1.60
2023-09-23T16:21:59.641Z,2.30
2023-09-23T16:24:04.160Z,2.00
2023-09-23T16:26:09.962Z,1.75
2023-09-23T16:28:14.086Z,2.00
2023-09-23T16:30:18.642Z,1.75
2023-09-23T16:32:23.059Z,1.83
2023-09-23T16:34:27.593Z,1.77
2023-09-23T16:36:31.913Z,1.75
2023-09-23T16:38:36.012Z,1.85
2023-09-23T16:40:40.074Z,1.88
2023-09-23T16:42:47.745Z,1.98
2023-09-23T16:44:51.952Z,1.90
2023-09-23T16:46:56.717Z,1.65
2023-09-23T16:49:01.166Z,1.88
2023-09-23T16:51:05.379Z,1.77
2023-09-23T16:53:09.688Z,1.80
2023-09-23T16:55:14.246Z,2.10
2023-09-23T16:57:20.522Z,2.33
2023-09-23T16:59:26.255Z,2.28
2023-09-23T17:01:30.227Z,2.20
2023-09-23T17:03:38.060Z,1.95
2023-09-23T17:05:43.472Z,1.80
2023-09-23T17:07:48.120Z,2.30
2023-09-23T17:09:52.600Z,2.13
2023-09-23T17:11:57.035Z,2.17
2023-09-23T17:14:01.717Z,2.33
2023-09-23T17:16:11.749Z,2.00
2023-09-23T17:18:19.213Z,1.80
2023-09-23T17:20:23.192Z,2.08
2023-09-23T17:22:27.225Z,2.25
2023-09-23T17:24:32.025Z,2.00
2023-09-23T17:26:36.386Z,2.45
2023-09-23T17:28:40.363Z,2.40
2023-09-23T17:30:44.404Z,2.40
2023-09-23T17:32:50.368Z,2.33
2023-09-23T17:34:54.597Z,2.00
2023-09-23T17:37:00.669Z,2.38
2023-09-23T17:39:04.575Z,2.63
2023-09-23T17:41:08.451Z,1.67
2023-09-23T17:43:12.547Z,1.95
2023-09-23T17:45:16.775Z,2.33
2023-09-23T17:47:21.008Z,2.38
2023-09-23T17:49:27.014Z,2.90
2023-09-23T17:51:31.921Z,2.40
2023-09-23T17:53:36.571Z,2.47
2023-09-23T17:55:39.869Z,3.03
2023-09-23T17:57:44.081Z,2.95
2023-09-23T17:59:48.903Z,2.75
2023-09-23T18:01:53.335Z,2.50
2023-09-23T18:04:00.095Z,2.80
2023-09-23T18:06:06.591Z,2.95
2023-09-23T18:08:10.901Z,2.60
2023-09-23T18:10:15.323Z,2.97
2023-09-23T18:12:20.253Z,2.70
2023-09-23T18:14:24.238Z,2.63
2023-09-23T18:16:29.571Z,2.75
2023-09-23T18:18:37.313Z,2.95
2023-09-23T18:20:42.268Z,2.95
2023-09-23T18:22:48.086Z,2.60
2023-09-23T18:24:52.651Z,2.42
2023-09-23T18:26:57.630Z,2.40
2023-09-23T18:29:04.220Z,2.35
2023-09-23T18:31:09.724Z,2.65
2023-09-23T18:33:14.091Z,2.33
2023-09-23T18:35:18.914Z,2.80
2023-09-23T18:37:23.643Z,2.67
2023-09-23T18:39:32.345Z,2.45
2023-09-23T18:41:36.876Z,2.65
2023-09-23T18:43:41.707Z,2.90
2023-09-23T18:45:46.755Z,2.53
2023-09-23T18:47:57.626Z,2.50
2023-09-23T18:50:13.376Z,2.80
2023-09-23T18:52:17.853Z,2.65
2023-09-23T18:54:22.294Z,3.20
2023-09-23T18:56:28.942Z,2.70
2023-09-23T18:58:33.310Z,2.60
2023-09-23T19:00:37.830Z,2.22
2023-09-23T19:02:45.119Z,2.72
2023-09-23T19:04:49.701Z,2.30
2023-09-23T19:06:54.154Z,3.00
2023-09-23T19:08:59.173Z,2.88
2023-09-23T19:11:04.850Z,3.30
2023-09-23T19:13:12.001Z,3.35
2023-09-23T19:15:18.317Z,3.55
2023-09-23T19:17:23.380Z,3.60
2023-09-23T19:19:28.930Z,3.88
2023-09-23T19:21:33.574Z,3.38
2023-09-23T19:23:41.581Z,3.30
2023-09-23T19:25:51.913Z,3.40
2023-09-23T19:27:56.303Z,2.95
2023-09-23T19:30:02.374Z,3.20
2023-09-23T19:32:07.675Z,3.03
2023-09-23T19:34:12.972Z,2.58
2023-09-23T19:36:17.830Z,2.10
2023-09-23T19:38:22.232Z,2.88
2023-09-23T19:40:27.310Z,3.10
2023-09-23T19:42:32.103Z,3.17
2023-09-23T19:44:37.029Z,3.25
2023-09-23T19:46:43.694Z,2.45
2023-09-23T19:48:49.801Z,2.75
2023-09-23T19:50:55.107Z,3.25
2023-09-23T19:53:01.227Z,3.08
2023-09-23T19:55:10.542Z,2.95
2023-09-23T19:57:14.797Z,3.30
2023-09-23T19:59:21.324Z,3.20
2023-09-23T20:01:29.093Z,3.50
2023-09-23T20:03:35.270Z,2.97
2023-09-23T20:05:40.837Z,2.85
2023-09-23T20:07:46.085Z,3.13
2023-09-23T20:09:50.943Z,2.88
2023-09-23T20:11:55.732Z,3.05
2023-09-23T20:14:00.374Z,2.97
2023-09-23T20:16:05.205Z,3.17
2023-09-23T20:18:12.077Z,3.22
2023-09-23T20:20:17.566Z,3.00
2023-09-23T20:22:22.187Z,3.20
2023-09-23T20:24:26.800Z,3.47
2023-09-23T20:26:31.558Z,3.50
2023-09-23T20:28:38.111Z,3.50
2023-09-23T20:30:42.749Z,3.35
2023-09-23T20:32:47.240Z,3.17
2023-09-23T20:34:51.931Z,3.20
2023-09-23T20:37:00.610Z,2.95
2023-09-23T20:39:06.799Z,3.10
2023-09-23T20:41:11.306Z,3.30
2023-09-23T20:43:16.207Z,2.95
2023-09-23T20:45:23.592Z,3.20
2023-09-23T20:47:28.722Z,3.58
2023-09-23T20:49:38.357Z,3.70
2023-09-23T20:51:44.089Z,3.65
2023-09-23T20:53:50.844Z,3.40
2023-09-23T20:55:55.857Z,3.53
2023-09-23T20:58:00.184Z,3.35
2023-09-23T21:00:06.957Z,3.28
2023-09-23T21:02:11.246Z,2.53
2023-09-23T21:04:18.077Z,2.63
2023-09-23T21:06:22.908Z,3.38
2023-09-23T21:08:27.488Z,2.45
2023-09-23T21:10:35.594Z,2.50
2023-09-23T21:12:39.557Z,2.70
2023-09-23T21:14:46.619Z,2.85
2023-09-23T21:16:51.357Z,2.47
2023-09-23T21:18:55.627Z,2.17
2023-09-23T21:21:00.037Z,2.63
2023-09-23T21:23:04.032Z,2.38
2023-09-23T21:25:08.809Z,2.60
2023-09-23T21:27:16.126Z,2.28
2023-09-23T21:29:20.712Z,2.47
2023-09-23T21:31:24.802Z,2.28
2023-09-23T21:33:29.386Z,2.45
2023-09-23T21:35:33.578Z,2.40
2023-09-23T21:37:38.714Z,2.50
2023-09-23T21:39:43.118Z,2.50
2023-09-23T21:41:47.174Z,2.40
2023-09-23T21:43:52.527Z,2.45
2023-09-23T21:45:56.951Z,2.08
2023-09-23T21:48:03.005Z,2.28
2023-09-23T21:50:09.933Z,2.35
2023-09-23T21:52:15.115Z,1.70
2023-09-23T21:54:19.306Z,2.47
2023-09-23T21:56:33.909Z,2.80
2023-09-23T21:58:46.277Z,3.60
2023-09-23T22:00:51.750Z,3.90
2023-09-23T22:02:57.754Z,4.15
2023-09-23T22:05:05.287Z,3.22
2023-09-23T22:07:11.041Z,3.08
2023-09-23T22:09:18.882Z,3.13
2023-09-23T22:11:23.325Z,3.10
2023-09-23T22:13:28.127Z,2.97
2023-09-23T22:15:35.041Z,3.03
2023-09-23T22:17:41.753Z,3.50
2023-09-23T22:19:45.003Z,2.80
2023-09-23T22:21:49.178Z,4.57
2023-09-23T22:23:55.414Z,9.43
2023-09-23T22:26:02.302Z,8.52
2023-09-23T22:28:06.697Z,10.27
2023-09-23T22:30:12.071Z,11.20
2023-09-23T22:32:16.502Z,10.98
2023-09-23T22:34:22.738Z,11.50
2023-09-23T22:36:26.986Z,12.10
2023-09-23T22:38:30.898Z,10.15
2023-09-23T22:40:33.778Z,8.68
2023-09-23T22:42:42.201Z,8.95
2023-09-23T22:44:46.203Z,7.22
2023-09-23T22:46:50.695Z,5.13
2023-09-23T22:48:55.366Z,5.45
2023-09-23T22:51:06.429Z,5.30
2023-09-23T22:53:10.442Z,5.72
2023-09-23T22:55:15.347Z,5.22
2023-09-23T22:57:19.534Z,4.00
2023-09-23T22:59:25.246Z,4.13
2023-09-23T23:01:32.700Z,4.18
2023-09-23T23:03:36.605Z,4.97
2023-09-23T23:05:44.434Z,3.72
2023-09-23T23:07:53.648Z,4.03
2023-09-23T23:10:01.543Z,4.05
2023-09-23T23:12:08.263Z,4.78
2023-09-23T23:14:12.424Z,4.25
2023-09-23T23:16:17.627Z,4.03
2023-09-23T23:18:22.036Z,3.88
2023-09-23T23:20:26.401Z,3.70
2023-09-23T23:22:30.835Z,2.63
2023-09-23T23:24:39.316Z,3.33
2023-09-23T23:26:45.462Z,3.40
2023-09-23T23:28:54.476Z,3.10
2023-09-23T23:30:59.478Z,2.92
2023-09-23T23:33:03.076Z,3.70
2023-09-23T23:35:07.708Z,4.07
2023-09-23T23:37:11.662Z,3.55
2023-09-23T23:39:17.160Z,4.70
2023-09-23T23:41:24.619Z,4.18
2023-09-23T23:43:27.919Z,4.75
2023-09-23T23:45:33.738Z,3.97
2023-09-23T23:47:38.603Z,4.30
2023-09-23T23:49:43.325Z,4.10
2023-09-23T23:51:49.807Z,4.40
2023-09-23T23:53:53.921Z,4.32
2023-09-23T23:55:58.621Z,3.97
2023-09-23T23:58:08.821Z,4.55
